createdAt,value
2023-03-11T00:02:13.504Z,0.9
2023-03-11T00:05:15.412Z,0.8
2023-03-11T00:08:17.333Z,1.3
2023-03-11T00:11:19.284Z,0.9
2023-03-11T00:14:21.243Z,1.3
2023-03-11T00:17:23.204Z,0.9
2023-03-11T00:20:25.367Z,1.1
2023-03-11T00:23:27.148Z,0.9
2023-03-11T00:26:29.091Z,0.9
2023-03-11T00:29:31.079Z,0.9
2023-03-11T00:32:33.103Z,0.9
2023-03-11T00:35:35.032Z,1.1
2023-03-11T00:38:37.016Z,1
2023-03-11T00:41:38.895Z,0.9
2023-03-11T00:44:40.856Z,1
2023-03-11T00:47:42.808Z,1
2023-03-11T00:50:44.773Z,0.8
2023-03-11T00:53:46.752Z,1.1
2023-03-11T00:56:48.699Z,1.1
2023-03-11T00:59:50.683Z,0.9
2023-03-11T01:02:52.654Z,0.9
2023-03-11T01:05:54.603Z,1.2
2023-03-11T01:08:56.573Z,1.4
2023-03-11T01:11:58.523Z,1
2023-03-11T01:15:00.492Z,1.1
2023-03-11T01:18:02.460Z,0.9
2023-03-11T01:21:04.417Z,0.9
2023-03-11T01:24:06.381Z,0.9
2023-03-11T01:27:08.346Z,0.8
2023-03-11T01:30:10.299Z,0.8
2023-03-11T01:33:12.283Z,0.9
2023-03-11T01:36:14.221Z,1
2023-03-11T01:39:16.188Z,1
2023-03-11T01:42:18.126Z,1.1
2023-03-11T01:45:20.107Z,0.9
2023-03-11T01:48:22.072Z,1
2023-03-11T01:51:24.029Z,0.9
2023-03-11T01:54:26.024Z,0.9
2023-03-11T01:57:27.952Z,1
2023-03-11T02:00:29.931Z,1.1
2023-03-11T02:03:31.889Z,1.1
2023-03-11T02:06:33.830Z,1.1
2023-03-11T02:09:35.827Z,1.1
2023-03-11T02:12:37.794Z,0.8
2023-03-11T02:15:40.180Z,1.2
2023-03-11T02:18:41.741Z,1.2
2023-03-11T02:21:43.738Z,1
2023-03-11T02:24:45.709Z,1.5
2023-03-11T02:27:47.659Z,1.3
2023-03-11T02:30:49.658Z,1.1
2023-03-11T02:33:51.615Z,1.3
2023-03-11T02:36:53.550Z,1.3
2023-03-11T02:39:55.593Z,1.4
2023-03-11T02:42:57.457Z,1.3
2023-03-11T02:45:59.416Z,1.1
2023-03-11T02:49:01.420Z,1.3
2023-03-11T02:52:03.363Z,1.3
2023-03-11T02:55:05.346Z,1.2
2023-03-11T02:58:07.279Z,1.2
2023-03-11T03:01:09.247Z,1.3
2023-03-11T03:04:11.256Z,1.2
2023-03-11T03:07:13.189Z,1.3
2023-03-11T03:10:15.147Z,1.2
2023-03-11T03:13:17.123Z,1.2
2023-03-11T03:16:19.133Z,1.2
2023-03-11T03:19:21.054Z,1.1
2023-03-11T03:22:23.020Z,1.3
2023-03-11T03:25:24.973Z,1.1
2023-03-11T03:28:26.952Z,1.4
2023-03-11T03:31:28.936Z,1.1
2023-03-11T03:34:30.855Z,1.6
2023-03-11T03:37:32.857Z,1.3
2023-03-11T03:40:34.775Z,1.5
2023-03-11T03:43:36.730Z,1.3
2023-03-11T03:46:38.699Z,1.2
2023-03-11T03:49:40.663Z,1.3
2023-03-11T03:52:42.629Z,1.4
2023-03-11T03:55:44.586Z,1.5
2023-03-11T03:58:46.907Z,1.4
2023-03-11T04:01:48.498Z,1.6
2023-03-11T04:04:50.462Z,1.6
2023-03-11T04:07:52.447Z,1.8
2023-03-11T04:10:54.414Z,1.4
2023-03-11T04:13:56.362Z,1.4
2023-03-11T04:16:58.416Z,1.8
2023-03-11T04:20:00.290Z,1.8
2023-03-11T04:23:02.248Z,1.7
2023-03-11T04:26:04.213Z,1.6
2023-03-11T04:29:06.168Z,1.6
2023-03-11T04:32:08.114Z,1.6
2023-03-11T04:35:10.107Z,2
2023-03-11T04:38:12.077Z,1.6
2023-03-11T04:41:14.012Z,1.6
2023-03-11T04:44:15.972Z,1.8
2023-03-11T04:47:17.959Z,1.7
2023-03-11T04:50:19.914Z,1.6
2023-03-11T04:53:21.888Z,1.9
2023-03-11T04:56:23.850Z,2.1
2023-03-11T04:59:25.813Z,2.1
2023-03-11T05:02:27.775Z,1.8
2023-03-11T05:05:29.760Z,1.8
2023-03-11T05:08:31.709Z,1.6
2023-03-11T05:11:33.655Z,1.8
2023-03-11T05:14:35.695Z,2
2023-03-11T05:17:37.656Z,1.8
2023-03-11T05:20:39.610Z,1.8
2023-03-11T05:23:41.608Z,2
2023-03-11T05:26:43.548Z,1.9
2023-03-11T05:29:45.513Z,1.8
2023-03-11T05:32:47.514Z,2
2023-03-11T05:35:49.578Z,1.9
2023-03-11T05:38:51.438Z,2
2023-03-11T05:41:53.372Z,1.9
2023-03-11T05:44:55.561Z,2.3
2023-03-11T05:47:57.312Z,2.3
2023-03-11T05:50:59.287Z,2.3
2023-03-11T05:54:01.283Z,1.9
2023-03-11T05:57:03.207Z,2
2023-03-11T06:00:05.182Z,2
2023-03-11T06:03:07.148Z,2
2023-03-11T06:06:09.109Z,2.1
2023-03-11T06:09:11.069Z,1.9
2023-03-11T06:12:13.044Z,2.3
2023-03-11T06:15:15.000Z,2.1
2023-03-11T06:18:16.975Z,1.9
2023-03-11T06:21:18.953Z,2.1
2023-03-11T06:24:20.883Z,1.8
2023-03-11T06:27:22.847Z,1.6
2023-03-11T06:30:24.807Z,1.9
2023-03-11T06:33:26.778Z,1.8
2023-03-11T06:36:28.738Z,1.9
2023-03-11T06:39:30.702Z,2.2
2023-03-11T06:42:32.678Z,2.3
2023-03-11T06:45:34.671Z,2
2023-03-11T06:48:36.599Z,1.9
2023-03-11T06:51:38.556Z,1.7
2023-03-11T06:54:40.507Z,2.1
2023-03-11T06:57:42.498Z,2.2
2023-03-11T07:00:44.540Z,2.1
2023-03-11T07:03:46.495Z,2.3
2023-03-11T07:06:48.431Z,1.7
2023-03-11T07:09:50.378Z,2.1
2023-03-11T07:12:52.322Z,2.1
2023-03-11T07:15:57.338Z,2
2023-03-11T07:18:59.306Z,2.3
2023-03-11T07:22:01.253Z,1.6
2023-03-11T07:25:03.215Z,2
2023-03-11T07:28:05.165Z,1.5
2023-03-11T07:31:07.154Z,1.9
2023-03-11T07:34:09.122Z,1.4
2023-03-11T07:37:11.076Z,1.4
2023-03-11T07:40:13.025Z,1.3
2023-03-11T07:43:15.183Z,1.9
2023-03-11T07:46:17.620Z,1.7
2023-03-11T07:49:18.928Z,1.9
2023-03-11T07:52:20.918Z,1.8
2023-03-11T07:55:22.877Z,1.7
2023-03-11T07:58:24.840Z,1.6
2023-03-11T08:01:26.812Z,1.5
2023-03-11T08:04:28.780Z,1.4
2023-03-11T08:07:30.731Z,1.8
2023-03-11T08:10:32.737Z,1.9
2023-03-11T08:13:34.658Z,1.9
2023-03-11T08:16:36.636Z,2.2
2023-03-11T08:19:38.565Z,1.7
2023-03-11T08:22:52.018Z,2.2
2023-03-11T08:25:42.524Z,1.6
2023-03-11T08:28:44.571Z,2
2023-03-11T08:31:46.467Z,1.8
2023-03-11T08:34:48.440Z,1.7
2023-03-11T08:37:50.387Z,1.4
2023-03-11T08:40:52.362Z,1.5
2023-03-11T08:43:54.310Z,1.1
2023-03-11T08:46:56.365Z,1.4
2023-03-11T08:49:58.257Z,1.5
2023-03-11T08:53:00.218Z,1.4
2023-03-11T08:56:02.211Z,1.7
2023-03-11T08:59:04.219Z,1.7
2023-03-11T09:02:06.083Z,1.9
2023-03-11T09:05:08.038Z,2
2023-03-11T09:08:10.026Z,2
2023-03-11T09:11:11.966Z,1.6
2023-03-11T09:14:16.999Z,1.5
2023-03-11T09:17:18.970Z,1.9
2023-03-11T09:20:20.970Z,1.6
2023-03-11T09:23:22.942Z,1.4
2023-03-11T09:26:24.904Z,1.4
2023-03-11T09:29:26.862Z,1.7
2023-03-11T09:32:28.909Z,1.7
2023-03-11T09:35:30.863Z,1.5
2023-03-11T09:38:32.775Z,1.4
2023-03-11T09:41:38.272Z,1.5
2023-03-11T09:44:36.671Z,1.4
2023-03-11T09:47:38.650Z,1.3
2023-03-11T09:50:40.629Z,1.2
2023-03-11T09:53:42.609Z,1.2
2023-03-11T09:56:44.694Z,1.6
2023-03-11T09:59:46.518Z,1.3
2023-03-11T10:02:48.625Z,1.3
2023-03-11T10:05:50.570Z,1.8
2023-03-11T10:08:52.554Z,1.2
2023-03-11T10:11:54.524Z,0.9
2023-03-11T10:14:56.478Z,0.9
2023-03-11T10:17:58.440Z,0.9
2023-03-11T10:21:00.397Z,1.2
2023-03-11T10:24:02.387Z,1.2
2023-03-11T10:27:04.371Z,1
2023-03-11T10:30:06.398Z,0.9
2023-03-11T10:33:08.351Z,1.1
2023-03-11T10:36:10.352Z,1
2023-03-11T10:39:12.284Z,0.9
2023-03-11T10:42:14.225Z,1
2023-03-11T10:45:16.193Z,1.1
2023-03-11T10:48:18.179Z,1
2023-03-11T10:51:20.143Z,0.9
2023-03-11T10:54:22.101Z,0.9
2023-03-11T10:57:24.108Z,1
2023-03-11T11:00:26.225Z,1.3
2023-03-11T11:03:27.993Z,1.1
2023-03-11T11:06:29.985Z,1
2023-03-11T11:09:31.958Z,1.1
2023-03-11T11:12:33.924Z,1.5
2023-03-11T11:15:35.896Z,1.3
2023-03-11T11:18:37.856Z,1.4
2023-03-11T11:21:39.818Z,1.2
2023-03-11T11:24:41.773Z,1.7
2023-03-11T11:27:43.884Z,1.3
2023-03-11T11:30:45.918Z,1.3
2023-03-11T11:33:47.868Z,1
2023-03-11T11:36:49.828Z,1.2
2023-03-11T11:39:52.159Z,0.9
2023-03-11T11:42:53.718Z,1.3
2023-03-11T11:45:55.696Z,1.1
2023-03-11T11:48:57.661Z,1
2023-03-11T11:51:59.612Z,1.3
2023-03-11T11:55:01.585Z,1.1
2023-03-11T11:58:03.561Z,1
2023-03-11T12:01:05.581Z,1.2
2023-03-11T12:04:07.557Z,0.9
2023-03-11T12:07:09.505Z,0.9
2023-03-11T12:10:22.045Z,1.2
2023-03-11T12:13:13.502Z,0.9
2023-03-11T12:16:15.463Z,0.8
2023-03-11T12:19:17.377Z,1.3
2023-03-11T12:22:19.327Z,1
2023-03-11T12:25:21.284Z,0.9
2023-03-11T12:28:23.258Z,1.3
2023-03-11T12:31:25.356Z,0.9
2023-03-11T12:34:27.298Z,1.1
2023-03-11T12:37:29.249Z,1.2
2023-03-11T12:40:31.248Z,1
2023-03-11T12:43:33.228Z,1
2023-03-11T12:46:35.194Z,1.3
2023-03-11T12:49:37.179Z,1
2023-03-11T12:52:39.126Z,1.3
2023-03-11T12:55:41.152Z,1
2023-03-11T12:58:43.098Z,1.5
2023-03-11T13:01:45.167Z,0.9
2023-03-11T13:04:47.116Z,1.1
2023-03-11T13:07:49.165Z,1.3
2023-03-11T13:10:51.132Z,1.1
2023-03-11T13:13:53.092Z,1.2
2023-03-11T13:16:55.082Z,1
2023-03-11T13:19:57.031Z,1
2023-03-11T13:22:59.029Z,1
2023-03-11T13:26:00.960Z,1
2023-03-11T13:29:02.920Z,0.9
2023-03-11T13:32:04.883Z,0.8
2023-03-11T13:35:06.855Z,0.8
2023-03-11T13:38:09.138Z,0.8
2023-03-11T13:41:10.783Z,0.6
2023-03-11T13:44:12.764Z,1
2023-03-11T13:47:14.745Z,1.1
2023-03-11T13:50:16.726Z,1.2
2023-03-11T13:53:18.674Z,1
2023-03-11T13:56:20.619Z,1
2023-03-11T13:59:22.594Z,0.8
2023-03-11T14:02:24.598Z,0.7
2023-03-11T14:05:26.511Z,1
2023-03-11T14:08:28.494Z,0.9
2023-03-11T14:11:30.593Z,1
2023-03-11T14:14:32.450Z,0.9
2023-03-11T14:17:34.404Z,0.9
2023-03-11T14:20:36.351Z,0.9
2023-03-11T14:23:38.331Z,1.1
2023-03-11T14:26:40.270Z,1.2
2023-03-11T14:29:42.243Z,0.9
2023-03-11T14:32:44.240Z,0.7
2023-03-11T14:35:46.212Z,1
2023-03-11T14:38:48.145Z,1.1
2023-03-11T14:41:50.103Z,0.8
2023-03-11T14:44:52.158Z,0.9
2023-03-11T14:47:54.127Z,1.3
2023-03-11T14:50:56.088Z,0.7
2023-03-11T14:53:58.052Z,0.7
2023-03-11T14:57:00.027Z,0.9
2023-03-11T15:00:01.996Z,0.7
2023-03-11T15:03:03.983Z,0.9
2023-03-11T15:06:05.924Z,0.9
2023-03-11T15:09:07.905Z,1
2023-03-11T15:12:09.858Z,1.2
2023-03-11T15:15:11.808Z,1.2
2023-03-11T15:18:13.772Z,0.8
2023-03-11T15:21:15.744Z,0.9
2023-03-11T15:24:17.703Z,0.8
2023-03-11T15:27:19.692Z,0.7
2023-03-11T15:30:21.631Z,0.9
2023-03-11T15:33:23.593Z,0.8
2023-03-11T15:36:25.565Z,0.9
2023-03-11T15:39:27.585Z,1
2023-03-11T15:42:29.490Z,0.8
2023-03-11T15:45:31.485Z,0.9
2023-03-11T15:48:33.439Z,0.9
2023-03-11T15:51:35.398Z,1.2
2023-03-11T15:54:37.366Z,0.9
2023-03-11T15:57:39.320Z,1
2023-03-11T16:00:41.302Z,1.1
2023-03-11T16:03:43.440Z,0.9
2023-03-11T16:06:46.764Z,1.1
2023-03-11T16:09:47.224Z,1.3
2023-03-11T16:12:49.171Z,1
2023-03-11T16:15:51.188Z,1
2023-03-11T16:18:53.575Z,1.1
2023-03-11T16:21:55.726Z,1
2023-03-11T16:24:58.108Z,1.1
2023-03-11T16:28:00.154Z,1.1
2023-03-11T16:31:02.192Z,0.9
2023-03-11T16:34:04.058Z,0.8
2023-03-11T16:37:06.035Z,1.3
2023-03-11T16:40:08.001Z,0.9
2023-03-11T16:43:09.971Z,0.9
2023-03-11T16:46:11.954Z,0.9
2023-03-11T16:49:13.910Z,0.9
2023-03-11T16:52:15.920Z,1
2023-03-11T16:55:17.857Z,0.9
2023-03-11T16:58:19.819Z,1.3
2023-03-11T17:01:21.951Z,1.1
2023-03-11T17:04:23.731Z,0.8
2023-03-11T17:07:25.700Z,1
2023-03-11T17:10:27.685Z,1.2
2023-03-11T17:13:29.693Z,1.1
2023-03-11T17:16:31.662Z,0.9
2023-03-11T17:19:33.597Z,0.9
2023-03-11T17:22:35.554Z,1.2
2023-03-11T17:25:37.525Z,0.9
2023-03-11T17:28:39.451Z,1
2023-03-11T17:31:41.460Z,1.1
2023-03-11T17:34:43.394Z,1.2
2023-03-11T17:37:45.365Z,0.8
2023-03-11T17:40:47.300Z,0.9
2023-03-11T17:43:51.302Z,0.9
2023-03-11T17:46:51.326Z,1.1
2023-03-11T17:49:53.195Z,1.4
2023-03-11T17:52:55.166Z,1
2023-03-11T17:55:57.136Z,0.8
2023-03-11T17:58:59.096Z,1
2023-03-11T18:02:01.060Z,1.1
2023-03-11T18:05:03.006Z,1.4
2023-03-11T18:08:05.010Z,1.1
2023-03-11T18:11:06.979Z,1
2023-03-11T18:14:08.920Z,1.1
2023-03-11T18:17:10.880Z,1.2
2023-03-11T18:20:12.829Z,1.3
2023-03-11T18:23:14.853Z,1.3
2023-03-11T18:26:16.807Z,1.3
2023-03-11T18:29:19.101Z,1.4
2023-03-11T18:32:20.902Z,1.7
2023-03-11T18:35:22.701Z,1.6
2023-03-11T18:38:24.664Z,1.6
2023-03-11T18:41:26.614Z,1.6
2023-03-11T18:44:28.679Z,1.5
2023-03-11T18:47:30.548Z,1.6
2023-03-11T18:50:32.500Z,1.5
2023-03-11T18:53:34.498Z,1.4
2023-03-11T18:56:36.441Z,1.4
2023-03-11T18:59:38.395Z,1.5
2023-03-11T19:02:40.359Z,1.6
2023-03-11T19:05:42.337Z,1.4
2023-03-11T19:08:44.294Z,1.5
2023-03-11T19:11:46.270Z,1.5
2023-03-11T19:14:48.227Z,1.6
2023-03-11T19:18:00.788Z,1.8
2023-03-11T19:20:52.138Z,2
2023-03-11T19:23:54.120Z,1.9
2023-03-11T19:26:56.057Z,1.9
2023-03-11T19:29:58.056Z,2.2
2023-03-11T19:33:00.024Z,2.7
2023-03-11T19:36:02.075Z,2.5
2023-03-11T19:39:03.947Z,2.6
2023-03-11T19:42:05.887Z,2.3
2023-03-11T19:45:07.863Z,2.8
2023-03-11T19:48:12.093Z,2.7
2023-03-11T19:51:11.834Z,2.9
2023-03-11T19:54:13.758Z,3.3
2023-03-11T19:57:15.712Z,2.8
2023-03-11T20:00:17.729Z,3.1
2023-03-11T20:03:19.642Z,2.9
2023-03-11T20:06:21.819Z,3.1
2023-03-11T20:09:23.617Z,3.3
2023-03-11T20:12:25.558Z,3
2023-03-11T20:15:27.501Z,3.2
2023-03-11T20:18:29.597Z,3
2023-03-11T20:21:31.428Z,2.9
2023-03-11T20:24:33.480Z,2.8
2023-03-11T20:27:35.360Z,2.8
2023-03-11T20:30:37.318Z,3.2
2023-03-11T20:33:39.349Z,3.8
2023-03-11T20:36:41.286Z,3.2
2023-03-11T20:39:43.251Z,3.4
2023-03-11T20:42:45.279Z,3.5
2023-03-11T20:45:47.235Z,3.1
2023-03-11T20:48:49.237Z,3.1
2023-03-11T20:51:51.209Z,2.9
2023-03-11T20:54:53.189Z,2.8
2023-03-11T20:57:55.091Z,4.3
2023-03-11T21:00:57.101Z,4.4
2023-03-11T21:03:59.125Z,3.5
2023-03-11T21:07:00.963Z,3.9
2023-03-11T21:10:03.026Z,3.7
2023-03-11T21:13:04.871Z,4.1
2023-03-11T21:16:06.961Z,3.9
2023-03-11T21:19:08.991Z,3.8
2023-03-11T21:22:10.818Z,3.7
2023-03-11T21:25:12.901Z,3.9
2023-03-11T21:28:14.711Z,4.6
2023-03-11T21:31:16.736Z,4.4
2023-03-11T21:34:18.687Z,4
2023-03-11T21:37:20.636Z,4.6
2023-03-11T21:40:22.599Z,4.7
2023-03-11T21:43:24.580Z,4.4
2023-03-11T21:46:26.594Z,4.7
2023-03-11T21:49:28.597Z,4.2
2023-03-11T21:52:30.422Z,4.6
2023-03-11T21:55:32.373Z,4.5
2023-03-11T21:58:34.384Z,3.9
2023-03-11T22:01:36.487Z,3.5
2023-03-11T22:04:38.555Z,3.7
2023-03-11T22:07:40.258Z,3.5
2023-03-11T22:10:42.372Z,3.2
2023-03-11T22:13:44.290Z,3.6
2023-03-11T22:16:46.216Z,4.2
2023-03-11T22:19:48.138Z,4.4
2023-03-11T22:22:50.033Z,4.6
2023-03-11T22:25:51.991Z,4.5
2023-03-11T22:28:53.959Z,4.4
2023-03-11T22:31:56.418Z,4.2
2023-03-11T22:34:57.885Z,4.1
2023-03-11T22:37:59.882Z,5
2023-03-11T22:41:01.838Z,4.4
2023-03-11T22:44:03.792Z,4.8
2023-03-11T22:47:05.770Z,4.9
2023-03-11T22:50:07.788Z,4.9
2023-03-11T22:53:09.696Z,5.3
2023-03-11T22:56:11.658Z,5.3
2023-03-11T22:59:13.617Z,5.1
2023-03-11T23:02:15.584Z,5.1
2023-03-11T23:05:17.553Z,5.9
2023-03-11T23:08:19.512Z,6.3
2023-03-11T23:11:21.468Z,5.5
2023-03-11T23:14:28.015Z,5
2023-03-11T23:17:25.388Z,5.6
2023-03-11T23:20:27.344Z,5.6
2023-03-11T23:23:29.332Z,5
2023-03-11T23:26:31.331Z,5.7
2023-03-11T23:29:33.284Z,5.4
2023-03-11T23:32:35.342Z,5.1
2023-03-11T23:35:37.262Z,5.2
2023-03-11T23:38:39.201Z,4.4
2023-03-11T23:41:41.148Z,4.8
2023-03-11T23:44:43.134Z,4.2
2023-03-11T23:47:45.073Z,4.8
2023-03-11T23:50:47.030Z,4.2
2023-03-11T23:53:49.009Z,5.1
2023-03-11T23:56:50.951Z,4.9
2023-03-11T23:59:52.932Z,4.5
